Nearby METAR Reports

 

KDVT - Phoenix/Deer Vly, Arizona, USA
Distance from station: SSE 14mi, 22km
Updated: 12/10/2019 1:53pm
Clear
Clear
 Wind from SSW
Wind: SSW 6 mph , 9 km/h
Temperature: 64°F , 18°C
Dew Point: 39°F , 4°C
Humidity: 40%
Barometer: 30.19 inHg , 1022.4 hPa
Clouds: Clear
Visibility: 10 miles , 16 km
2019/12/10 20:53 KDVT 102053Z 21005KT 10SM CLR 18/04 A3019 RMK AO2 SLP211 T01780044 56020
KSDL - Scottsdale, Arizona, USA
Distance from station: SE 22mi, 35km
Updated: 12/10/2019 1:53pm
Clear
Clear
 Wind from W
Wind: W 3 mph , 6 km/h
Temperature: 64°F , 18°C
Dew Point: 37°F , 3°C
Humidity: 37%
Barometer: 30.23 inHg , 1023.7 hPa
Clouds: Clear
Visibility: 10 miles , 16 km
2019/12/10 20:53 KSDL 102053Z 27003KT 10SM CLR 18/03 A3023 RMK AO2 SLP225 T01830033 55004
 
KGEU - Glendale, Arizona, USA
Distance from station: SSW 25mi, 41km
Updated: 12/10/2019 1:51pm
Clear
Clear
 Wind from SSW
Wind: SSW 3 mph , 6 km/h
Temperature: 64°F , 18°C
Dew Point: 43°F , 6°C
Humidity: 46%
Barometer: 30.20 inHg , 1022.7 hPa
Clouds: Clear
Visibility: 10 miles , 16 km
2019/12/10 20:51 KGEU 102051Z 20003KT 10SM SKC 18/06 A3020
KLUF - Luke Afb/Glendal, Arizona, USA
Distance from station: SSW 28mi, 45km
Updated: 12/10/2019 1:58pm
Clear
Clear
 Wind from calm
Wind: Calm
Temperature: 66°F , 19°C
Dew Point: 39°F , 4°C
Humidity: 37%
Barometer: 30.17 inHg , 1021.7 hPa
Clouds: Clear
Visibility: 10 miles , 16 km
2019/12/10 20:58 KLUF 102058Z AUTO 00000KT 10SM CLR 19/04 A3017 RMK AO2 SLP214 T01850039 57020
 
KPHX - Phoenix/Sky Hrbr, Arizona, USA
Distance from station: SSE 31mi, 51km
Updated: 12/10/2019 1:51pm
Few Clouds
Few Clouds
 Wind from varies
Wind: varies 3 mph , 6 km/h
Temperature: 66°F , 19°C
Dew Point: 36°F , 2°C
Humidity: 32%
Barometer: 30.17 inHg , 1021.7 hPa
Clouds: Few Clouds
Visibility: 10 miles , 16 km
Cloud details: Few Clouds 25000 ft
2019/12/10 20:51 KPHX 102051Z VRB03KT 10SM FEW250 19/02 A3017 RMK AO2 SLP207 T01940022 58024
KGYR - Goodyear Municip, Arizona, USA
Distance from station: SSW 34mi, 55km
Updated: 12/10/2019 2:47pm
Few Clouds
Few Clouds
 Wind from varies
Wind: varies 3 mph , 6 km/h
Temperature: 66°F , 19°C
Dew Point: 43°F , 6°C
Humidity: 43%
Barometer: 30.19 inHg , 1022.4 hPa
Clouds: Few Clouds
Visibility: 10 miles , 16 km
Cloud details: Few Clouds 25000 ft
2019/12/10 21:47 KGYR 102147Z VRB03KT 10SM FEW250 19/06 A3019
 
KFFZ - Mesa/Falcon Fld, Arizona, USA
Distance from station: SE 37mi, 60km
Updated: 12/10/2019 1:54pm
Clear
Clear
 Wind from calm
Wind: Calm
Temperature: 66°F , 19°C
Dew Point: 37°F , 3°C
Humidity: 35%
Barometer: 30.17 inHg , 1021.7 hPa
Clouds: Clear
Visibility: 10 miles , 16 km
2019/12/10 20:54 KFFZ 102054Z 00000KT 10SM CLR 19/03 A3017 RMK AO2 SLP205 T01890033 56025
KBXK - Buckeye, Arizona, USA
Distance from station: SW 45mi, 72km
Updated: 12/10/2019 2:35pm
Clear
Clear
 Wind from SE
Wind: SE 5 mph , 7 km/h
Temperature: 64°F , 18°C
Dew Point: 41°F , 5°C
Humidity: 43%
Barometer: 30.19 inHg , 1022.4 hPa
Clouds: Clear
Visibility: 10 miles , 16 km
2019/12/10 21:35 KBXK 102135Z AUTO 14004KT 10SM CLR 18/05 A3019 RMK A01
 
KIWA - Chandler/Mesa, Arizona, USA
Distance from station: SE 49mi, 78km
Updated: 12/10/2019 1:47pm
Clear
Clear
 Wind from varies
Wind: varies 6 mph , 9 km/h
Temperature: 63°F , 17°C
Dew Point: 46°F , 8°C
Humidity: 56%
Barometer: 30.20 inHg , 1022.7 hPa
Clouds: Clear
Visibility: 10 miles , 16 km
2019/12/10 20:47 KIWA 102047Z VRB05KT 10SM CLR 17/08 A3020
KPAN - Payson, Arizona, USA
Distance from station: ENE 53mi, 85km
Updated: 12/10/2019 2:35pm
Clear
Clear
 Wind from varies
Wind: varies 5 mph , 7 km/h
Temperature: 54°F , 12°C
Dew Point: 25°F , -4°C
Humidity: 33%
Barometer: 30.25 inHg , 1024.4 hPa
Clouds: Clear
Visibility: 10 miles , 16 km
2019/12/10 21:35 KPAN 102135Z AUTO VRB04KT 10SM CLR 12/M04 A3025 RMK AO2
 
KPRC - Prescott, Arizona, USA
Distance from station: NNW 56mi, 90km
Updated: 12/10/2019 1:53pm
Clear
Clear
 Wind from varies
Wind: varies 3 mph , 6 km/h
Temperature: 52°F , 11°C
Dew Point: 27°F , -3°C
Humidity: 38%
Barometer: 30.25 inHg , 1024.4 hPa
Clouds: Clear
Visibility: 10 miles , 16 km
2019/12/10 20:53 KPRC 102053Z VRB03KT 10SM CLR 11/M03 A3025 RMK AO2 SLP222 T01061033 56017
KCGZ - Casa Granda, Arizona, USA
Distance from station: SSE 67mi, 109km
Updated: 12/10/2019 1:56pm
Clear
Clear
 Wind from calm
Wind: Calm
Temperature: 63°F , 17°C
Dew Point: 45°F , 7°C
Humidity: 52%
Barometer: 30.20 inHg , 1022.7 hPa
Clouds: Clear
Visibility: 10 miles , 16 km
2019/12/10 20:56 KCGZ 102056Z AUTO 00000KT 10SM CLR 17/07 A3020 RMK AO2 SLP225 T01670072 58021
 
KSEZ - Sedona, Arizona, USA
Distance from station: NNE 70mi, 113km
Updated: 12/10/2019 2:35pm
Clear
Clear
 Wind from WSW
Wind: WSW 3 mph , 6 km/h
Temperature: 54°F , 12°C
Dew Point: 32°F , 0°C
Humidity: 44%
Barometer: 30.25 inHg , 1024.4 hPa
Clouds: Clear
Visibility: 10 miles , 16 km
2019/12/10 21:35 KSEZ 102135Z AUTO 25003KT 10SM CLR 12/00 A3025 RMK AO2
KGXF - Gila Bend (aaf), Arizona, USA
Distance from station: SSW 77mi, 124km
Updated: 12/10/2019 1:58pm
Clear
Clear
 Wind from N
Wind: N 6 mph , 9 km/h
Temperature: 66°F , 19°C
Dew Point: 48°F , 9°C
Humidity: 52%
Barometer: 30.17 inHg , 1021.7 hPa
Clouds: Clear
Visibility: 10 miles , 16 km
2019/12/10 20:58 KGXF 102058Z AUTO 35005KT 10SM CLR 19/09 A3017 RMK AO2 SLP213 T01870090 57022
 
KP08 - Coolidge Muni, Arizona, USA
Distance from station: SSE 77mi, 124km
Updated: 12/10/2019 2:30pm

 
2019/12/10 21:30 KP08 102130Z AUTO RMK AO2 PNO PWINO TSNO
KFLG - Flagstaff, Arizona, USA
Distance from station: NNE 91mi, 146km
Updated: 12/10/2019 1:57pm
Clear
Clear
 Wind from calm
Wind: Calm
Temperature: 48°F , 9°C
Dew Point: 16°F , -9°C
Humidity: 27%
Barometer: 30.27 inHg , 1025.1 hPa
Clouds: Clear
Visibility: 10 miles , 16 km
2019/12/10 20:57 KFLG 102057Z 00000KT 10SM CLR 09/M09 A3027 RMK AO2 SLP232 T00891089 58010
 
KCMR - Williams Clark, Arizona, USA
Distance from station: N 98mi, 158km
Updated: 12/10/2019 2:35pm
Clear
Clear
 Wind from varies
Wind: varies 5 mph , 7 km/h
Temperature: 50°F , 10°C
Wind Chill: 48°F , 9°C
Dew Point: 16°F , -9°C
Humidity: 25%
Barometer: 30.26 inHg , 1024.7 hPa
Clouds: Clear
Visibility: 10 miles , 16 km
2019/12/10 21:35 KCMR 102135Z AUTO VRB04KT 10SM CLR 10/M09 A3026 RMK AO2 PWINO